createdAt,value
2023-11-12T00:00:18.014Z,100587.34
2023-11-12T00:02:45.729Z,100589.91
2023-11-12T00:05:13.510Z,100586.63
2023-11-12T00:07:42.658Z,100588.84
2023-11-12T00:10:13.276Z,100600.13
2023-11-12T00:12:41.403Z,100616.59
2023-11-12T00:15:09.977Z,100607.50
2023-11-12T00:17:38.741Z,100601.63
2023-11-12T00:20:08.065Z,100598.88
2023-11-12T00:22:38.662Z,100590.22
2023-11-12T00:25:09.656Z,100595.41
2023-11-12T00:27:37.376Z,100585.84
2023-11-12T00:30:06.543Z,100586.50
2023-11-12T00:32:34.636Z,100591.59
2023-11-12T00:35:02.494Z,100582.59
2023-11-12T00:37:30.191Z,100587.22
2023-11-12T00:39:57.903Z,100575.81
2023-11-12T00:42:26.962Z,100574.53
2023-11-12T00:44:55.032Z,100571.03
2023-11-12T00:47:22.837Z,100572.16
2023-11-12T00:49:50.732Z,100581.97
2023-11-12T00:52:19.090Z,100576.03
2023-11-12T00:54:48.309Z,100575.19
2023-11-12T00:57:16.135Z,100577.19
2023-11-12T00:59:45.180Z,100578.41
2023-11-12T01:02:16.489Z,100576.34
2023-11-12T01:04:44.436Z,100581.88
2023-11-12T01:07:12.150Z,100578.19
2023-11-12T01:09:39.940Z,100575.09
2023-11-12T01:12:07.988Z,100576.59
2023-11-12T01:14:35.753Z,100574.06
2023-11-12T01:17:06.372Z,100575.16
2023-11-12T01:19:34.241Z,100568.00
2023-11-12T01:22:02.092Z,100572.38
2023-11-12T01:24:30.343Z,100570.59
2023-11-12T01:26:58.490Z,100572.56
2023-11-12T01:29:26.789Z,100567.59
2023-11-12T01:31:54.458Z,100571.59
2023-11-12T01:34:24.716Z,100571.13
2023-11-12T01:36:52.366Z,100571.91
2023-11-12T01:39:20.280Z,100568.72
2023-11-12T01:41:48.077Z,100566.06
2023-11-12T01:44:15.798Z,100558.44
2023-11-12T01:46:43.984Z,100565.75
2023-11-12T01:49:12.198Z,100562.34
2023-11-12T01:51:41.628Z,100569.78
2023-11-12T01:54:09.765Z,100566.09
2023-11-12T01:56:38.665Z,100563.59
2023-11-12T01:59:07.832Z,100560.44
2023-11-12T02:01:35.594Z,100555.94
2023-11-12T02:04:04.351Z,100552.84
2023-11-12T02:06:32.333Z,100557.47
2023-11-12T02:09:02.859Z,100549.72
2023-11-12T02:11:31.666Z,100553.88
2023-11-12T02:14:00.499Z,100553.97
2023-11-12T02:16:28.784Z,100551.06
2023-11-12T02:18:56.750Z,100542.75
2023-11-12T02:21:25.615Z,100539.69
2023-11-12T02:23:54.698Z,100548.59
2023-11-12T02:26:22.415Z,100551.38
2023-11-12T02:28:50.179Z,100553.25
2023-11-12T02:31:18.124Z,100554.59
2023-11-12T02:33:45.897Z,100561.00
2023-11-12T02:36:15.168Z,100555.63
2023-11-12T02:38:42.887Z,100559.03
2023-11-12T02:41:12.853Z,100553.69
2023-11-12T02:43:41.410Z,100560.50
2023-11-12T02:46:10.276Z,100560.88
2023-11-12T02:48:56.775Z,100558.97
2023-11-12T02:51:25.914Z,100557.84
2023-11-12T02:53:55.391Z,100562.19
2023-11-12T02:56:25.096Z,100561.34
2023-11-12T02:58:52.861Z,100557.84
2023-11-12T03:01:21.164Z,100554.59
2023-11-12T03:03:49.037Z,100544.06
2023-11-12T03:06:16.748Z,100556.53
2023-11-12T03:08:45.002Z,100553.88
2023-11-12T03:11:13.336Z,100554.94
2023-11-12T03:13:42.460Z,100555.69
2023-11-12T03:16:11.172Z,100558.59
2023-11-12T03:18:39.065Z,100562.47
2023-11-12T03:21:07.022Z,100550.63
2023-11-12T03:23:34.707Z,100559.84
2023-11-12T03:26:02.332Z,100555.03
2023-11-12T03:28:30.070Z,100558.16
2023-11-12T03:30:59.287Z,100550.16
2023-11-12T03:33:29.014Z,100551.13
2023-11-12T03:35:56.927Z,100546.91
2023-11-12T03:38:25.162Z,100547.75
2023-11-12T03:40:52.990Z,100543.75
2023-11-12T03:43:21.109Z,100547.28
2023-11-12T03:45:48.919Z,100548.13
2023-11-12T03:48:18.068Z,100545.22
2023-11-12T03:50:45.804Z,100547.75
2023-11-12T03:53:13.491Z,100549.44
2023-11-12T03:55:41.165Z,100546.78
2023-11-12T03:58:08.894Z,100551.00
2023-11-12T04:00:38.512Z,100550.03
2023-11-12T04:03:07.053Z,100543.59
2023-11-12T04:05:36.243Z,100542.75
2023-11-12T04:08:03.940Z,100538.88
2023-11-12T04:10:31.699Z,100539.63
2023-11-12T04:13:00.496Z,100537.06
2023-11-12T04:15:28.902Z,100535.84
2023-11-12T04:17:56.647Z,100541.06
2023-11-12T04:20:29.053Z,100538.00
2023-11-12T04:22:58.218Z,100531.97
2023-11-12T04:25:25.927Z,100523.59
2023-11-12T04:27:53.688Z,100533.84
2023-11-12T04:30:21.425Z,100530.13
2023-11-12T04:32:49.233Z,100535.31
2023-11-12T04:35:18.274Z,100538.69
2023-11-12T04:37:46.635Z,100540.38
2023-11-12T04:40:17.714Z,100540.59
2023-11-12T04:42:45.862Z,100537.81
2023-11-12T04:45:13.587Z,100533.56
2023-11-12T04:47:41.456Z,100536.97
2023-11-12T04:50:10.233Z,100538.63
2023-11-12T04:52:37.885Z,100550.63
2023-11-12T04:55:06.277Z,100545.53
2023-11-12T04:57:35.420Z,100551.84
2023-11-12T05:00:04.416Z,100549.91
2023-11-12T05:02:32.102Z,100540.31
2023-11-12T05:05:00.347Z,100550.00
2023-11-12T05:07:28.021Z,100546.78
2023-11-12T05:09:55.753Z,100545.19
2023-11-12T05:12:23.581Z,100544.75
2023-11-12T05:14:52.647Z,100555.63
2023-11-12T05:17:23.140Z,100555.06
2023-11-12T05:19:50.899Z,100552.16
2023-11-12T05:22:18.906Z,100557.38
2023-11-12T05:24:46.643Z,100553.00
2023-11-12T05:27:14.473Z,100549.63
2023-11-12T05:29:42.765Z,100557.63
2023-11-12T05:32:11.879Z,100559.69
2023-11-12T05:34:40.452Z,100558.84
2023-11-12T05:37:09.124Z,100563.44
2023-11-12T05:39:36.918Z,100559.34
2023-11-12T05:42:04.930Z,100570.59
2023-11-12T05:44:32.628Z,100566.09
2023-11-12T05:47:00.729Z,100567.47
2023-11-12T05:49:30.056Z,100569.53
2023-11-12T05:51:57.899Z,100582.22
2023-11-12T05:54:25.660Z,100582.38
2023-11-12T05:56:53.407Z,100576.31
2023-11-12T05:59:21.111Z,100577.16
2023-11-12T06:01:49.077Z,100589.88
2023-11-12T06:04:17.089Z,100591.94
2023-11-12T06:06:46.211Z,100589.41
2023-11-12T06:09:13.982Z,100584.19
2023-11-12T06:11:41.763Z,100589.03
2023-11-12T06:14:09.736Z,100585.53
2023-11-12T06:16:37.537Z,100582.28
2023-11-12T06:19:05.289Z,100575.63
2023-11-12T06:21:33.141Z,100577.19
2023-11-12T06:24:02.813Z,100576.59
2023-11-12T06:26:30.501Z,100586.28
2023-11-12T06:28:58.330Z,100583.63
2023-11-12T06:31:26.026Z,100594.50
2023-11-12T06:33:53.976Z,100589.91
2023-11-12T06:36:21.781Z,100593.66
2023-11-12T06:38:49.992Z,100598.13
2023-11-12T06:41:19.881Z,100595.47
2023-11-12T06:43:47.597Z,100590.41
2023-11-12T06:46:15.282Z,100592.22
2023-11-12T06:48:43.078Z,100594.88
2023-11-12T06:51:10.799Z,100599.44
2023-11-12T06:53:38.522Z,100607.31
2023-11-12T06:56:07.237Z,100604.41
2023-11-12T06:58:36.722Z,100613.50
2023-11-12T07:01:04.625Z,100602.75
2023-11-12T07:03:32.511Z,100602.84
2023-11-12T07:06:00.673Z,100599.34
2023-11-12T07:08:28.648Z,100610.72
2023-11-12T07:10:56.301Z,100610.84
2023-11-12T07:13:24.060Z,100610.09
2023-11-12T07:15:53.139Z,100608.41
2023-11-12T07:18:20.949Z,100611.91
2023-11-12T07:20:48.707Z,100615.53
2023-11-12T07:23:16.929Z,100624.47
2023-11-12T07:25:44.750Z,100618.44
2023-11-12T07:28:12.866Z,100622.06
2023-11-12T07:30:40.736Z,100623.78
2023-11-12T07:33:11.055Z,100631.50
2023-11-12T07:35:38.815Z,100621.00
2023-11-12T07:38:07.841Z,100629.09
2023-11-12T07:40:35.580Z,100634.31
2023-11-12T07:43:04.360Z,100635.13
2023-11-12T07:45:38.221Z,100630.66
2023-11-12T07:48:10.961Z,100647.34
2023-11-12T07:50:39.302Z,100648.44
2023-11-12T07:53:07.099Z,100649.16
2023-11-12T07:55:34.796Z,100647.25
2023-11-12T07:58:02.667Z,100646.41
2023-11-12T08:00:30.368Z,100649.06
2023-11-12T08:02:59.517Z,100650.75
2023-11-12T08:05:28.600Z,100644.59
2023-11-12T08:07:56.318Z,100650.66
2023-11-12T08:10:24.026Z,100652.94
2023-11-12T08:12:51.698Z,100660.06
2023-11-12T08:15:19.517Z,100657.41
2023-11-12T08:17:48.466Z,100653.78
2023-11-12T08:20:16.697Z,100649.53
2023-11-12T08:22:47.834Z,100653.19
2023-11-12T08:25:15.709Z,100648.69
2023-11-12T08:27:43.550Z,100655.00
2023-11-12T08:30:12.005Z,100654.25
2023-11-12T08:32:41.067Z,100658.50
2023-11-12T08:35:09.541Z,100651.94
2023-11-12T08:37:37.743Z,100656.16
2023-11-12T08:40:08.803Z,100650.34
2023-11-12T08:42:36.640Z,100642.81
2023-11-12T08:45:05.607Z,100650.59
2023-11-12T08:47:34.068Z,100651.91
2023-11-12T08:50:01.800Z,100649.88
2023-11-12T08:52:29.514Z,100653.50
2023-11-12T08:54:57.298Z,100657.84
2023-11-12T08:57:26.411Z,100647.88
2023-11-12T08:59:54.729Z,100656.13
2023-11-12T09:02:22.593Z,100658.63
2023-11-12T09:04:50.275Z,100660.03
2023-11-12T09:07:17.998Z,100658.25
2023-11-12T09:09:45.752Z,100658.75
2023-11-12T09:12:13.483Z,100660.72
2023-11-12T09:14:42.545Z,100663.03
2023-11-12T09:17:10.307Z,100660.72
2023-11-12T09:19:38.006Z,100662.28
2023-11-12T09:22:05.920Z,100660.47
2023-11-12T09:24:33.689Z,100664.81
2023-11-12T09:27:01.872Z,100680.47
2023-11-12T09:29:29.982Z,100668.03
2023-11-12T09:31:59.082Z,100670.84
2023-11-12T09:34:28.006Z,100664.72
2023-11-12T09:36:55.747Z,100665.97
2023-11-12T09:39:24.804Z,100666.13
2023-11-12T09:41:56.848Z,100678.84
2023-11-12T09:44:28.782Z,100682.69
2023-11-12T09:47:08.486Z,100676.94
2023-11-12T09:49:36.296Z,100682.03
2023-11-12T09:52:04.232Z,100680.19
2023-11-12T09:54:32.704Z,100683.88
2023-11-12T09:57:06.433Z,100687.38
2023-11-12T09:59:37.611Z,100686.81
2023-11-12T10:02:07.524Z,100699.09
2023-11-12T10:04:35.446Z,100695.81
2023-11-12T10:07:05.127Z,100690.47
2023-11-12T10:09:33.311Z,100690.44
2023-11-12T10:12:05.277Z,100690.31
2023-11-12T10:14:32.971Z,100693.31
2023-11-12T10:17:08.341Z,100695.25
2023-11-12T10:19:36.610Z,100695.25
2023-11-12T10:22:05.176Z,100706.69
2023-11-12T10:24:42.966Z,100700.34
2023-11-12T10:27:13.116Z,100704.81
2023-11-12T10:29:42.092Z,100700.84
2023-11-12T10:32:25.838Z,100700.09
2023-11-12T10:34:53.889Z,100706.19
2023-11-12T10:37:21.605Z,100703.81
2023-11-12T10:39:50.823Z,100706.19
2023-11-12T10:42:24.484Z,100708.31
2023-11-12T10:44:55.978Z,100706.72
2023-11-12T10:47:26.946Z,100699.31
2023-11-12T10:49:55.924Z,100703.03
2023-11-12T10:52:24.576Z,100702.44
2023-11-12T10:54:53.137Z,100709.09
2023-11-12T10:57:21.061Z,100691.78
2023-11-12T10:59:50.852Z,100691.94
2023-11-12T11:02:22.960Z,100688.25
2023-11-12T11:04:53.553Z,100691.41
2023-11-12T11:07:21.294Z,100697.78
2023-11-12T11:09:50.036Z,100691.47
2023-11-12T11:12:19.643Z,100705.06
2023-11-12T11:14:48.265Z,100695.63
2023-11-12T11:17:37.442Z,100695.88
2023-11-12T11:20:07.828Z,100707.88
2023-11-12T11:22:36.122Z,100704.38
2023-11-12T11:25:23.898Z,100707.06
2023-11-12T11:27:53.077Z,100710.88
2023-11-12T11:30:21.030Z,100709.16
2023-11-12T11:33:06.820Z,100712.34
2023-11-12T11:35:36.856Z,100706.75
2023-11-12T11:38:13.452Z,100704.41
2023-11-12T11:40:43.563Z,100714.78
2023-11-12T11:43:36.394Z,100717.84
2023-11-12T11:46:12.220Z,100712.00
2023-11-12T11:49:13.601Z,100711.13
2023-11-12T11:51:52.812Z,100714.66
2023-11-12T11:54:20.722Z,100713.13
2023-11-12T11:56:48.595Z,100720.84
2023-11-12T11:59:16.642Z,100723.34
2023-11-12T12:01:45.820Z,100725.78
2023-11-12T12:04:14.587Z,100718.81
2023-11-12T12:06:44.206Z,100724.53
2023-11-12T12:09:18.352Z,100725.03
2023-11-12T12:11:47.311Z,100719.34
2023-11-12T12:14:16.076Z,100716.78
2023-11-12T12:16:46.598Z,100718.50
2023-11-12T12:19:19.084Z,100719.78
2023-11-12T12:21:49.085Z,100732.09
2023-11-12T12:24:23.687Z,100726.06
2023-11-12T12:26:52.059Z,100733.28
2023-11-12T12:29:21.868Z,100735.56
2023-11-12T12:31:50.550Z,100732.94
2023-11-12T12:34:20.147Z,100734.25
2023-11-12T12:36:58.295Z,100739.50
2023-11-12T12:39:29.630Z,100738.38
2023-11-12T12:41:59.603Z,100734.13
2023-11-12T12:44:29.667Z,100728.06
2023-11-12T12:46:57.399Z,100724.00
2023-11-12T12:49:33.209Z,100731.34
2023-11-12T12:52:02.001Z,100731.75
2023-11-12T12:54:32.181Z,100732.31
2023-11-12T12:57:05.073Z,100730.84
2023-11-12T12:59:36.617Z,100729.72
2023-11-12T13:02:04.699Z,100734.31
2023-11-12T13:04:33.992Z,100723.81
2023-11-12T13:07:07.711Z,100723.53
2023-11-12T13:09:40.208Z,100723.66
2023-11-12T13:12:13.327Z,100728.56
2023-11-12T13:14:42.971Z,100722.16
2023-11-12T13:17:10.723Z,100717.09
2023-11-12T13:19:41.051Z,100719.16
2023-11-12T13:22:09.296Z,100725.22
2023-11-12T13:24:40.043Z,100726.91
2023-11-12T13:27:09.094Z,100724.53
2023-11-12T13:29:36.835Z,100721.06
2023-11-12T13:32:08.476Z,100722.09
2023-11-12T13:34:36.223Z,100729.47
2023-11-12T13:37:04.136Z,100719.97
2023-11-12T13:39:31.938Z,100728.31
2023-11-12T13:42:03.219Z,100726.47
2023-11-12T13:44:33.496Z,100723.53
2023-11-12T13:47:01.229Z,100722.84
2023-11-12T13:49:29.876Z,100722.63
2023-11-12T13:51:58.077Z,100725.97
2023-11-12T13:54:25.962Z,100726.28
2023-11-12T13:56:53.643Z,100731.06
2023-11-12T13:59:22.702Z,100719.72
2023-11-12T14:01:51.514Z,100731.75
2023-11-12T14:04:19.642Z,100739.63
2023-11-12T14:06:48.254Z,100735.84
2023-11-12T14:09:18.701Z,100741.94
2023-11-12T14:11:47.666Z,100735.34
2023-11-12T14:14:15.386Z,100733.09
2023-11-12T14:16:44.886Z,100747.50
2023-11-12T14:19:13.586Z,100750.47
2023-11-12T14:21:43.384Z,100748.94
2023-11-12T14:24:12.606Z,100746.41
2023-11-12T14:26:40.669Z,100754.44
2023-11-12T14:29:08.767Z,100748.38
2023-11-12T14:31:36.693Z,100743.22
2023-11-12T14:34:15.704Z,100752.94
2023-11-12T14:36:44.210Z,100753.09
2023-11-12T14:39:19.523Z,100743.47
2023-11-12T14:41:47.450Z,100744.72
2023-11-12T14:44:15.201Z,100752.50
2023-11-12T14:46:43.925Z,100753.28
2023-11-12T14:49:13.090Z,100741.22
2023-11-12T14:51:42.124Z,100754.22
2023-11-12T14:54:18.834Z,100755.06
2023-11-12T14:56:47.652Z,100760.19
2023-11-12T14:59:15.372Z,100757.09
2023-11-12T15:01:47.373Z,100768.25
2023-11-12T15:04:17.292Z,100765.44
2023-11-12T15:06:45.213Z,100772.22
2023-11-12T15:09:13.030Z,100766.00
2023-11-12T15:11:41.750Z,100777.84
2023-11-12T15:14:10.002Z,100776.16
2023-11-12T15:16:38.661Z,100780.38
2023-11-12T15:19:07.222Z,100783.22
2023-11-12T15:21:43.099Z,100795.75
2023-11-12T15:24:12.056Z,100792.78
2023-11-12T15:26:40.941Z,100799.41
2023-11-12T15:29:08.742Z,100800.41
2023-11-12T15:31:36.990Z,100804.34
2023-11-12T15:34:07.213Z,100799.41
2023-11-12T15:36:38.120Z,100804.59
2023-11-12T15:39:09.533Z,100804.03
2023-11-12T15:41:37.336Z,100809.38
2023-11-12T15:44:05.363Z,100814.28
2023-11-12T15:46:33.726Z,100823.44
2023-11-12T15:49:02.321Z,100808.19
2023-11-12T15:51:30.312Z,100818.66
2023-11-12T15:54:01.280Z,100809.47
2023-11-12T15:56:29.070Z,100811.03
2023-11-12T15:58:56.764Z,100804.19
2023-11-12T16:01:24.759Z,100804.69
2023-11-12T16:03:53.144Z,100792.94
2023-11-12T16:06:20.970Z,100801.63
2023-11-12T16:08:54.262Z,100806.13
2023-11-12T16:11:29.144Z,100810.63
2023-11-12T16:13:58.127Z,100808.34
2023-11-12T16:16:27.328Z,100810.31
2023-11-12T16:18:55.712Z,100807.06
2023-11-12T16:21:23.576Z,100808.41
2023-11-12T16:23:51.545Z,100815.75
2023-11-12T16:26:20.497Z,100812.13
2023-11-12T16:28:49.689Z,100804.91
2023-11-12T16:31:17.876Z,100818.53
2023-11-12T16:33:47.161Z,100816.81
2023-11-12T16:36:14.924Z,100819.03
2023-11-12T16:38:42.654Z,100813.13
2023-11-12T16:41:10.465Z,100808.72
2023-11-12T16:43:38.301Z,100806.38
2023-11-12T16:46:07.655Z,100809.31
2023-11-12T16:48:35.475Z,100811.72
2023-11-12T16:51:04.528Z,100808.94
2023-11-12T16:53:33.918Z,100804.75
2023-11-12T16:56:03.422Z,100818.31
2023-11-12T16:58:31.114Z,100821.56
2023-11-12T17:00:59.154Z,100824.66
2023-11-12T17:03:28.996Z,100828.19
2023-11-12T17:05:56.862Z,100821.88
2023-11-12T17:08:24.922Z,100825.72
2023-11-12T17:10:53.596Z,100826.56
2023-11-12T17:13:22.538Z,100829.22
2023-11-12T17:15:50.677Z,100830.88
2023-11-12T17:18:18.899Z,100830.63
2023-11-12T17:20:48.991Z,100836.50
2023-11-12T17:23:16.721Z,100837.41
2023-11-12T17:25:44.444Z,100841.56
2023-11-12T17:28:12.220Z,100838.41
2023-11-12T17:30:41.024Z,100841.19
2023-11-12T17:33:09.992Z,100851.56
2023-11-12T17:35:39.936Z,100854.41
2023-11-12T17:38:08.997Z,100857.78
2023-11-12T17:40:37.553Z,100865.13
2023-11-12T17:43:05.398Z,100859.72
2023-11-12T17:45:33.167Z,100872.81
2023-11-12T17:48:01.036Z,100872.81
2023-11-12T17:50:28.758Z,100881.31
2023-11-12T17:52:56.681Z,100869.03
2023-11-12T17:55:25.676Z,100869.47
2023-11-12T17:57:55.526Z,100868.34
2023-11-12T18:00:24.019Z,100878.16
2023-11-12T18:02:54.039Z,100881.09
2023-11-12T18:05:21.942Z,100897.50
2023-11-12T18:07:51.305Z,100897.50
2023-11-12T18:10:20.415Z,100901.38
2023-11-12T18:12:51.653Z,100910.09
2023-11-12T18:15:20.455Z,100906.38
2023-11-12T18:17:48.730Z,100905.97
2023-11-12T18:20:18.682Z,100907.06
2023-11-12T18:22:47.722Z,100910.47
2023-11-12T18:25:16.677Z,100916.50
2023-11-12T18:27:44.550Z,100925.03
2023-11-12T18:30:16.561Z,100919.06
2023-11-12T18:32:44.365Z,100922.72
2023-11-12T18:35:12.204Z,100919.50
2023-11-12T18:37:41.834Z,100920.59
2023-11-12T18:40:15.833Z,100911.22
2023-11-12T18:42:43.806Z,100902.75
2023-11-12T18:45:16.770Z,100891.44
2023-11-12T18:47:45.166Z,100887.94
2023-11-12T18:50:13.700Z,100887.31
2023-11-12T18:52:42.471Z,100898.81
2023-11-12T18:55:14.984Z,100888.84
2023-11-12T18:57:42.964Z,100886.44
2023-11-12T19:00:11.956Z,100884.28
2023-11-12T19:02:41.930Z,100878.44
2023-11-12T19:05:10.353Z,100878.25
2023-11-12T19:07:39.191Z,100881.25
2023-11-12T19:10:11.047Z,100874.47
2023-11-12T19:12:40.483Z,100877.50
2023-11-12T19:15:09.402Z,100879.44
2023-11-12T19:17:38.458Z,100878.44
2023-11-12T19:20:09.263Z,100868.00
2023-11-12T19:22:36.941Z,100874.22
2023-11-12T19:25:04.788Z,100865.41
2023-11-12T19:27:32.498Z,100876.91
2023-11-12T19:30:08.639Z,100882.34
2023-11-12T19:32:42.161Z,100876.16
2023-11-12T19:35:12.446Z,100870.34
2023-11-12T19:37:40.259Z,100869.75
2023-11-12T19:40:09.680Z,100872.25
2023-11-12T19:42:40.135Z,100879.91
2023-11-12T19:45:08.636Z,100878.94
2023-11-12T19:47:37.442Z,100878.00
2023-11-12T19:50:07.856Z,100889.38
2023-11-12T19:52:36.916Z,100891.59
2023-11-12T19:55:05.746Z,100893.59
2023-11-12T19:57:33.682Z,100892.78
2023-11-12T20:00:01.403Z,100896.56
2023-11-12T20:02:29.274Z,100902.75
2023-11-12T20:04:57.103Z,100908.19
2023-11-12T20:07:24.856Z,100905.28
2023-11-12T20:09:56.416Z,100895.31
2023-11-12T20:12:24.183Z,100906.50
2023-11-12T20:14:51.901Z,100903.66
2023-11-12T20:17:19.585Z,100898.38
2023-11-12T20:19:47.386Z,100886.34
2023-11-12T20:22:18.712Z,100881.00
2023-11-12T20:24:51.106Z,100880.88
2023-11-12T20:27:21.095Z,100877.88
2023-11-12T20:29:51.017Z,100878.44
2023-11-12T20:32:18.978Z,100869.94
2023-11-12T20:34:51.274Z,100867.81
2023-11-12T20:37:20.163Z,100862.34
2023-11-12T20:39:48.141Z,100867.69
2023-11-12T20:42:15.905Z,100860.31
2023-11-12T20:44:45.330Z,100863.00
2023-11-12T20:47:13.879Z,100862.16
2023-11-12T20:49:41.908Z,100853.03
2023-11-12T20:52:09.887Z,100847.00
2023-11-12T20:54:39.319Z,100849.66
2023-11-12T20:57:10.149Z,100853.31
2023-11-12T20:59:37.871Z,100877.69
2023-11-12T21:02:14.633Z,100870.78
2023-11-12T21:04:51.439Z,100876.34
2023-11-12T21:07:19.764Z,100873.44
2023-11-12T21:09:50.346Z,100867.50
2023-11-12T21:12:18.724Z,100869.91
2023-11-12T21:14:48.400Z,100867.88
2023-11-12T21:17:17.712Z,100878.16
2023-11-12T21:19:50.600Z,100888.72
2023-11-12T21:22:18.421Z,100895.13
2023-11-12T21:24:46.087Z,100887.84
2023-11-12T21:27:14.096Z,100890.41
2023-11-12T21:29:41.925Z,100887.03
2023-11-12T21:32:10.565Z,100889.56
2023-11-12T21:34:39.774Z,100898.19
2023-11-12T21:37:07.895Z,100901.00
2023-11-12T21:39:36.895Z,100907.66
2023-11-12T21:42:06.374Z,100916.00
2023-11-12T21:44:34.154Z,100914.41
2023-11-12T21:47:03.632Z,100912.94
2023-11-12T21:49:31.545Z,100909.34
2023-11-12T21:52:01.211Z,100926.31
2023-11-12T21:54:29.028Z,100936.84
2023-11-12T21:56:56.873Z,100939.66
2023-11-12T21:59:27.345Z,100951.53
2023-11-12T22:01:55.077Z,100953.25
2023-11-12T22:04:26.031Z,100953.09
2023-11-12T22:06:53.959Z,100956.03
2023-11-12T22:09:23.939Z,100943.66
2023-11-12T22:11:52.235Z,100949.84
2023-11-12T22:14:20.364Z,100943.91
2023-11-12T22:16:48.124Z,100938.06
2023-11-12T22:19:15.999Z,100928.88
2023-11-12T22:21:46.549Z,100932.50
2023-11-12T22:24:15.418Z,100929.81
2023-11-12T22:26:44.527Z,100921.34
2023-11-12T22:29:12.569Z,100913.69
2023-11-12T22:31:40.342Z,100918.31
2023-11-12T22:34:08.087Z,100914.66
2023-11-12T22:36:35.767Z,100906.91
2023-11-12T22:39:06.047Z,100911.16
2023-11-12T22:41:33.763Z,100898.53
2023-11-12T22:44:02.821Z,100897.69
2023-11-12T22:46:29.665Z,100871.34
2023-11-12T22:48:57.559Z,100883.00
2023-11-12T22:51:25.655Z,100878.75
2023-11-12T22:53:53.344Z,100879.25
2023-11-12T22:56:21.062Z,100870.97
2023-11-12T22:58:51.207Z,100884.31
2023-11-12T23:01:21.447Z,100896.69
2023-11-12T23:03:49.540Z,100899.75
2023-11-12T23:06:18.175Z,100893.41
2023-11-12T23:08:47.301Z,100889.19
2023-11-12T23:11:15.082Z,100884.09
2023-11-12T23:13:43.438Z,100887.25
2023-11-12T23:16:12.119Z,100878.50
2023-11-12T23:18:41.367Z,100867.84
2023-11-12T23:21:10.276Z,100851.56
2023-11-12T23:23:38.268Z,100840.31
2023-11-12T23:26:06.288Z,100837.53
2023-11-12T23:28:36.275Z,100846.00
2023-11-12T23:31:04.192Z,100843.91
2023-11-12T23:33:32.199Z,100831.06
2023-11-12T23:36:01.304Z,100829.38
2023-11-12T23:38:29.024Z,100835.91
2023-11-12T23:40:57.361Z,100848.41
2023-11-12T23:43:25.897Z,100841.38
2023-11-12T23:45:53.645Z,100828.66
2023-11-12T23:48:21.410Z,100831.53
2023-11-12T23:50:49.188Z,100839.81
2023-11-12T23:53:18.187Z,100835.91
2023-11-12T23:55:45.905Z,100837.00
2023-11-12T23:58:13.625Z,100837.97
